sensor_id;sensor_type;location;lat;lon;timestamp;P1;durP1;ratioP1;P2;durP2;ratioP2
51066;SDS011;37112;45.892;-123.962;2023-06-22T00:00:15;7.20;;;2.70;;
51066;SDS011;37112;45.892;-123.962;2023-06-22T00:03:06;4.80;;;1.40;;
51066;SDS011;37112;45.892;-123.962;2023-06-22T00:05:37;8.80;;;2.00;;
51066;SDS011;37112;45.892;-123.962;2023-06-22T00:07:56;11.20;;;1.80;;
51066;SDS011;37112;45.892;-123.962;2023-06-22T00:10:27;9.60;;;2.80;;
51066;SDS011;37112;45.892;-123.962;2023-06-22T00:12:57;15.60;;;3.50;;
51066;SDS011;37112;45.892;-123.962;2023-06-22T00:15:28;10.60;;;2.40;;
51066;SDS011;37112;45.892;-123.962;2023-06-22T00:17:58;27.80;;;5.50;;
51066;SDS011;37112;45.892;-123.962;2023-06-22T00:20:22;9.80;;;1.60;;
51066;SDS011;37112;45.892;-123.962;2023-06-22T00:25:24;15.20;;;3.10;;
51066;SDS011;37112;45.892;-123.962;2023-06-22T00:27:54;8.90;;;1.60;;
51066;SDS011;37112;45.892;-123.962;2023-06-22T00:30:16;12.50;;;2.40;;
51066;SDS011;37112;45.892;-123.962;2023-06-22T00:32:47;11.10;;;2.00;;
51066;SDS011;37112;45.892;-123.962;2023-06-22T00:35:12;12.80;;;2.10;;
51066;SDS011;37112;45.892;-123.962;2023-06-22T00:37:42;9.70;;;2.20;;
51066;SDS011;37112;45.892;-123.962;2023-06-22T00:40:13;15.50;;;2.90;;
51066;SDS011;37112;45.892;-123.962;2023-06-22T00:42:48;9.30;;;1.10;;
51066;SDS011;37112;45.892;-123.962;2023-06-22T00:45:18;8.30;;;1.80;;
51066;SDS011;37112;45.892;-123.962;2023-06-22T00:47:50;15.10;;;2.20;;
51066;SDS011;37112;45.892;-123.962;2023-06-22T00:50:21;14.20;;;2.50;;
51066;SDS011;37112;45.892;-123.962;2023-06-22T00:52:54;25.50;;;3.50;;
51066;SDS011;37112;45.892;-123.962;2023-06-22T00:57:57;6.40;;;1.00;;
51066;SDS011;37112;45.892;-123.962;2023-06-22T01:00:28;5.50;;;1.00;;
51066;SDS011;37112;45.892;-123.962;2023-06-22T01:02:59;10.20;;;1.90;;
51066;SDS011;37112;45.892;-123.962;2023-06-22T01:05:31;6.60;;;1.60;;
51066;SDS011;37112;45.892;-123.962;2023-06-22T01:08:12;5.90;;;1.10;;
51066;SDS011;37112;45.892;-123.962;2023-06-22T01:10:52;18.20;;;3.50;;
51066;SDS011;37112;45.892;-123.962;2023-06-22T01:13:27;6.80;;;1.90;;
51066;SDS011;37112;45.892;-123.962;2023-06-22T01:16:02;21.20;;;2.80;;
51066;SDS011;37112;45.892;-123.962;2023-06-22T01:18:35;15.60;;;1.60;;
51066;SDS011;37112;45.892;-123.962;2023-06-22T01:23:42;12.00;;;1.80;;
51066;SDS011;37112;45.892;-123.962;2023-06-22T01:26:35;12.30;;;3.90;;
51066;SDS011;37112;45.892;-123.962;2023-06-22T01:29:03;9.50;;;2.70;;
51066;SDS011;37112;45.892;-123.962;2023-06-22T01:31:39;10.80;;;3.60;;
51066;SDS011;37112;45.892;-123.962;2023-06-22T01:34:10;6.90;;;1.60;;
51066;SDS011;37112;45.892;-123.962;2023-06-22T01:36:41;13.40;;;2.10;;
51066;SDS011;37112;45.892;-123.962;2023-06-22T01:39:13;5.60;;;1.10;;
51066;SDS011;37112;45.892;-123.962;2023-06-22T01:41:45;15.40;;;2.80;;
51066;SDS011;37112;45.892;-123.962;2023-06-22T01:44:17;20.20;;;3.20;;
51066;SDS011;37112;45.892;-123.962;2023-06-22T01:46:38;19.50;;;3.90;;
51066;SDS011;37112;45.892;-123.962;2023-06-22T01:49:10;12.40;;;2.40;;
51066;SDS011;37112;45.892;-123.962;2023-06-22T01:51:41;14.00;;;2.90;;
51066;SDS011;37112;45.892;-123.962;2023-06-22T01:54:12;9.00;;;1.40;;
51066;SDS011;37112;45.892;-123.962;2023-06-22T01:56:42;23.20;;;4.00;;
51066;SDS011;37112;45.892;-123.962;2023-06-22T01:59:14;8.10;;;1.60;;
51066;SDS011;37112;45.892;-123.962;2023-06-22T02:01:50;6.80;;;2.30;;
51066;SDS011;37112;45.892;-123.962;2023-06-22T02:04:21;9.60;;;2.00;;
51066;SDS011;37112;45.892;-123.962;2023-06-22T02:06:45;10.30;;;2.60;;
51066;SDS011;37112;45.892;-123.962;2023-06-22T02:09:19;9.00;;;2.50;;
51066;SDS011;37112;45.892;-123.962;2023-06-22T02:11:52;11.60;;;3.00;;
51066;SDS011;37112;45.892;-123.962;2023-06-22T02:14:24;34.40;;;5.40;;
51066;SDS011;37112;45.892;-123.962;2023-06-22T02:16:55;16.30;;;3.60;;
51066;SDS011;37112;45.892;-123.962;2023-06-22T02:19:24;10.70;;;2.70;;
51066;SDS011;37112;45.892;-123.962;2023-06-22T02:21:59;10.30;;;2.30;;
51066;SDS011;37112;45.892;-123.962;2023-06-22T02:24:30;8.60;;;2.20;;
51066;SDS011;37112;45.892;-123.962;2023-06-22T02:27:01;15.40;;;1.90;;
51066;SDS011;37112;45.892;-123.962;2023-06-22T02:29:33;20.80;;;2.90;;
51066;SDS011;37112;45.892;-123.962;2023-06-22T02:32:05;19.50;;;4.20;;
51066;SDS011;37112;45.892;-123.962;2023-06-22T02:34:24;26.80;;;5.20;;
51066;SDS011;37112;45.892;-123.962;2023-06-22T02:36:55;25.00;;;4.50;;
51066;SDS011;37112;45.892;-123.962;2023-06-22T02:39:27;23.60;;;4.60;;
51066;SDS011;37112;45.892;-123.962;2023-06-22T02:41:46;30.10;;;6.50;;
51066;SDS011;37112;45.892;-123.962;2023-06-22T02:44:17;19.00;;;3.70;;
51066;SDS011;37112;45.892;-123.962;2023-06-22T02:46:48;18.70;;;4.40;;
51066;SDS011;37112;45.892;-123.962;2023-06-22T02:49:18;17.50;;;3.10;;
51066;SDS011;37112;45.892;-123.962;2023-06-22T02:51:49;10.40;;;2.50;;
51066;SDS011;37112;45.892;-123.962;2023-06-22T02:54:19;13.20;;;2.10;;
51066;SDS011;37112;45.892;-123.962;2023-06-22T02:56:50;11.60;;;2.70;;
51066;SDS011;37112;45.892;-123.962;2023-06-22T02:59:20;15.10;;;2.70;;
51066;SDS011;37112;45.892;-123.962;2023-06-22T03:01:50;22.80;;;3.50;;
51066;SDS011;37112;45.892;-123.962;2023-06-22T03:04:22;15.60;;;3.30;;
51066;SDS011;37112;45.892;-123.962;2023-06-22T03:06:41;13.50;;;3.30;;
51066;SDS011;37112;45.892;-123.962;2023-06-22T03:09:18;14.70;;;3.10;;
51066;SDS011;37112;45.892;-123.962;2023-06-22T03:11:48;19.60;;;3.40;;
51066;SDS011;37112;45.892;-123.962;2023-06-22T03:14:19;45.10;;;6.70;;
51066;SDS011;37112;45.892;-123.962;2023-06-22T03:16:43;50.40;;;6.00;;
51066;SDS011;37112;45.892;-123.962;2023-06-22T03:19:13;18.50;;;3.00;;
51066;SDS011;37112;45.892;-123.962;2023-06-22T03:21:34;28.60;;;3.90;;
51066;SDS011;37112;45.892;-123.962;2023-06-22T03:24:06;18.00;;;4.60;;
51066;SDS011;37112;45.892;-123.962;2023-06-22T03:26:37;24.80;;;3.90;;
51066;SDS011;37112;45.892;-123.962;2023-06-22T03:29:07;32.30;;;5.10;;
51066;SDS011;37112;45.892;-123.962;2023-06-22T03:31:38;27.80;;;5.90;;
51066;SDS011;37112;45.892;-123.962;2023-06-22T03:34:09;24.30;;;4.40;;
51066;SDS011;37112;45.892;-123.962;2023-06-22T03:36:40;13.80;;;2.90;;
51066;SDS011;37112;45.892;-123.962;2023-06-22T03:39:12;10.00;;;2.40;;
51066;SDS011;37112;45.892;-123.962;2023-06-22T03:41:42;13.20;;;2.90;;
51066;SDS011;37112;45.892;-123.962;2023-06-22T03:44:13;14.20;;;2.20;;
51066;SDS011;37112;45.892;-123.962;2023-06-22T03:46:43;15.70;;;2.80;;
51066;SDS011;37112;45.892;-123.962;2023-06-22T03:49:07;16.40;;;2.70;;
51066;SDS011;37112;45.892;-123.962;2023-06-22T03:51:38;5.40;;;2.10;;
51066;SDS011;37112;45.892;-123.962;2023-06-22T03:54:09;12.00;;;2.30;;
51066;SDS011;37112;45.892;-123.962;2023-06-22T03:56:39;15.60;;;3.20;;
51066;SDS011;37112;45.892;-123.962;2023-06-22T03:59:02;18.90;;;3.90;;
51066;SDS011;37112;45.892;-123.962;2023-06-22T04:01:33;20.20;;;4.30;;
51066;SDS011;37112;45.892;-123.962;2023-06-22T04:04:03;21.40;;;4.60;;
51066;SDS011;37112;45.892;-123.962;2023-06-22T04:06:35;17.00;;;3.40;;
51066;SDS011;37112;45.892;-123.962;2023-06-22T04:08:54;9.80;;;1.90;;
51066;SDS011;37112;45.892;-123.962;2023-06-22T04:11:25;11.10;;;1.80;;
51066;SDS011;37112;45.892;-123.962;2023-06-22T04:13:55;5.70;;;2.30;;
51066;SDS011;37112;45.892;-123.962;2023-06-22T04:16:14;6.40;;;2.30;;
51066;SDS011;37112;45.892;-123.962;2023-06-22T04:18:44;7.30;;;2.20;;
51066;SDS011;37112;45.892;-123.962;2023-06-22T04:21:15;5.70;;;1.60;;
51066;SDS011;37112;45.892;-123.962;2023-06-22T04:23:46;6.10;;;1.50;;
51066;SDS011;37112;45.892;-123.962;2023-06-22T04:26:17;4.60;;;1.80;;
51066;SDS011;37112;45.892;-123.962;2023-06-22T04:28:49;8.70;;;2.00;;
51066;SDS011;37112;45.892;-123.962;2023-06-22T04:31:21;5.40;;;1.90;;
51066;SDS011;37112;45.892;-123.962;2023-06-22T04:33:59;9.90;;;2.20;;
51066;SDS011;37112;45.892;-123.962;2023-06-22T04:36:32;5.80;;;2.60;;
51066;SDS011;37112;45.892;-123.962;2023-06-22T04:39:07;8.50;;;3.10;;
51066;SDS011;37112;45.892;-123.962;2023-06-22T04:41:37;9.60;;;2.80;;
51066;SDS011;37112;45.892;-123.962;2023-06-22T04:44:11;5.60;;;2.30;;
51066;SDS011;37112;45.892;-123.962;2023-06-22T04:46:50;7.00;;;2.80;;
51066;SDS011;37112;45.892;-123.962;2023-06-22T04:49:26;4.90;;;1.70;;
51066;SDS011;37112;45.892;-123.962;2023-06-22T04:51:59;9.30;;;2.80;;
51066;SDS011;37112;45.892;-123.962;2023-06-22T04:54:31;12.30;;;2.70;;
51066;SDS011;37112;45.892;-123.962;2023-06-22T04:57:02;8.10;;;2.60;;
51066;SDS011;37112;45.892;-123.962;2023-06-22T04:59:26;4.20;;;1.80;;
51066;SDS011;37112;45.892;-123.962;2023-06-22T05:01:57;8.70;;;2.60;;
51066;SDS011;37112;45.892;-123.962;2023-06-22T05:06:59;7.60;;;2.30;;
51066;SDS011;37112;45.892;-123.962;2023-06-22T05:09:39;8.70;;;2.30;;
51066;SDS011;37112;45.892;-123.962;2023-06-22T05:12:00;5.30;;;2.40;;
51066;SDS011;37112;45.892;-123.962;2023-06-22T05:14:34;7.80;;;2.10;;
51066;SDS011;37112;45.892;-123.962;2023-06-22T05:16:56;5.10;;;2.40;;
51066;SDS011;37112;45.892;-123.962;2023-06-22T05:19:30;7.70;;;2.20;;
51066;SDS011;37112;45.892;-123.962;2023-06-22T05:22:01;6.80;;;2.40;;
51066;SDS011;37112;45.892;-123.962;2023-06-22T05:24:33;8.10;;;2.00;;
51066;SDS011;37112;45.892;-123.962;2023-06-22T05:27:04;6.10;;;2.60;;
51066;SDS011;37112;45.892;-123.962;2023-06-22T05:29:35;10.00;;;2.90;;
51066;SDS011;37112;45.892;-123.962;2023-06-22T05:32:07;8.40;;;2.80;;
51066;SDS011;37112;45.892;-123.962;2023-06-22T05:34:38;7.80;;;3.10;;
51066;SDS011;37112;45.892;-123.962;2023-06-22T05:37:09;11.00;;;2.20;;
51066;SDS011;37112;45.892;-123.962;2023-06-22T05:39:40;13.20;;;4.10;;
51066;SDS011;37112;45.892;-123.962;2023-06-22T05:42:11;6.90;;;3.60;;
51066;SDS011;37112;45.892;-123.962;2023-06-22T05:44:42;10.80;;;4.20;;
51066;SDS011;37112;45.892;-123.962;2023-06-22T05:47:13;8.90;;;3.50;;
51066;SDS011;37112;45.892;-123.962;2023-06-22T05:49:44;16.10;;;3.60;;
51066;SDS011;37112;45.892;-123.962;2023-06-22T05:52:15;11.10;;;4.20;;
51066;SDS011;37112;45.892;-123.962;2023-06-22T05:54:46;5.70;;;3.00;;
51066;SDS011;37112;45.892;-123.962;2023-06-22T05:57:16;11.20;;;3.60;;
51066;SDS011;37112;45.892;-123.962;2023-06-22T05:59:41;9.90;;;3.10;;
51066;SDS011;37112;45.892;-123.962;2023-06-22T06:02:00;7.30;;;2.60;;
51066;SDS011;37112;45.892;-123.962;2023-06-22T06:04:31;10.70;;;2.90;;
51066;SDS011;37112;45.892;-123.962;2023-06-22T06:07:02;12.50;;;3.50;;
51066;SDS011;37112;45.892;-123.962;2023-06-22T06:09:32;14.70;;;3.50;;
51066;SDS011;37112;45.892;-123.962;2023-06-22T06:12:04;5.60;;;2.50;;
51066;SDS011;37112;45.892;-123.962;2023-06-22T06:14:35;8.30;;;2.50;;
51066;SDS011;37112;45.892;-123.962;2023-06-22T06:17:05;10.40;;;2.60;;
51066;SDS011;37112;45.892;-123.962;2023-06-22T06:19:35;8.40;;;2.90;;
51066;SDS011;37112;45.892;-123.962;2023-06-22T06:22:06;8.70;;;3.20;;
51066;SDS011;37112;45.892;-123.962;2023-06-22T06:24:31;8.40;;;2.90;;
51066;SDS011;37112;45.892;-123.962;2023-06-22T06:27:01;9.20;;;3.30;;
51066;SDS011;37112;45.892;-123.962;2023-06-22T06:29:32;12.60;;;3.40;;
51066;SDS011;37112;45.892;-123.962;2023-06-22T06:32:03;6.10;;;3.00;;
51066;SDS011;37112;45.892;-123.962;2023-06-22T06:34:34;12.50;;;2.70;;
51066;SDS011;37112;45.892;-123.962;2023-06-22T06:37:05;9.00;;;2.90;;
51066;SDS011;37112;45.892;-123.962;2023-06-22T06:39:35;17.60;;;3.10;;
51066;SDS011;37112;45.892;-123.962;2023-06-22T06:42:03;14.50;;;3.20;;
51066;SDS011;37112;45.892;-123.962;2023-06-22T06:44:34;11.10;;;3.90;;
51066;SDS011;37112;45.892;-123.962;2023-06-22T06:47:05;11.30;;;3.20;;
51066;SDS011;37112;45.892;-123.962;2023-06-22T06:49:24;9.90;;;3.40;;
51066;SDS011;37112;45.892;-123.962;2023-06-22T06:51:54;28.80;;;11.50;;
51066;SDS011;37112;45.892;-123.962;2023-06-22T06:54:13;16.70;;;5.90;;
51066;SDS011;37112;45.892;-123.962;2023-06-22T06:56:47;12.40;;;3.70;;
51066;SDS011;37112;45.892;-123.962;2023-06-22T06:59:17;10.70;;;3.70;;
51066;SDS011;37112;45.892;-123.962;2023-06-22T07:01:48;9.90;;;3.60;;
51066;SDS011;37112;45.892;-123.962;2023-06-22T07:04:12;9.10;;;3.20;;
51066;SDS011;37112;45.892;-123.962;2023-06-22T07:06:43;6.70;;;3.10;;
51066;SDS011;37112;45.892;-123.962;2023-06-22T07:09:13;18.10;;;4.70;;
51066;SDS011;37112;45.892;-123.962;2023-06-22T07:11:37;13.40;;;3.70;;
51066;SDS011;37112;45.892;-123.962;2023-06-22T07:14:07;19.70;;;4.30;;
51066;SDS011;37112;45.892;-123.962;2023-06-22T07:16:37;13.80;;;4.30;;
51066;SDS011;37112;45.892;-123.962;2023-06-22T07:19:07;19.10;;;4.80;;
51066;SDS011;37112;45.892;-123.962;2023-06-22T07:21:39;15.40;;;4.30;;
51066;SDS011;37112;45.892;-123.962;2023-06-22T07:24:09;22.70;;;5.10;;
51066;SDS011;37112;45.892;-123.962;2023-06-22T07:26:40;12.00;;;4.30;;
51066;SDS011;37112;45.892;-123.962;2023-06-22T07:29:12;16.80;;;4.70;;
51066;SDS011;37112;45.892;-123.962;2023-06-22T07:31:42;12.40;;;4.50;;
51066;SDS011;37112;45.892;-123.962;2023-06-22T07:34:13;12.50;;;4.40;;
51066;SDS011;37112;45.892;-123.962;2023-06-22T07:36:43;10.20;;;3.00;;
51066;SDS011;37112;45.892;-123.962;2023-06-22T07:39:14;9.70;;;3.70;;
51066;SDS011;37112;45.892;-123.962;2023-06-22T07:41:42;13.20;;;4.30;;
51066;SDS011;37112;45.892;-123.962;2023-06-22T07:44:13;10.50;;;3.80;;
51066;SDS011;37112;45.892;-123.962;2023-06-22T07:46:43;8.40;;;3.70;;
51066;SDS011;37112;45.892;-123.962;2023-06-22T07:49:14;14.80;;;3.30;;
51066;SDS011;37112;45.892;-123.962;2023-06-22T07:51:43;14.30;;;3.40;;
51066;SDS011;37112;45.892;-123.962;2023-06-22T07:54:15;14.10;;;3.40;;
51066;SDS011;37112;45.892;-123.962;2023-06-22T07:56:45;12.80;;;3.10;;
51066;SDS011;37112;45.892;-123.962;2023-06-22T07:59:15;12.20;;;3.10;;
51066;SDS011;37112;45.892;-123.962;2023-06-22T08:01:46;8.20;;;3.30;;
51066;SDS011;37112;45.892;-123.962;2023-06-22T08:04:16;13.50;;;3.20;;
51066;SDS011;37112;45.892;-123.962;2023-06-22T08:06:35;14.90;;;3.50;;
51066;SDS011;37112;45.892;-123.962;2023-06-22T08:09:05;11.40;;;4.50;;
51066;SDS011;37112;45.892;-123.962;2023-06-22T08:11:34;17.30;;;3.70;;
51066;SDS011;37112;45.892;-123.962;2023-06-22T08:14:04;11.20;;;3.60;;
51066;SDS011;37112;45.892;-123.962;2023-06-22T08:16:23;12.80;;;3.70;;
51066;SDS011;37112;45.892;-123.962;2023-06-22T08:18:42;10.50;;;3.40;;
51066;SDS011;37112;45.892;-123.962;2023-06-22T08:21:11;12.10;;;3.10;;
51066;SDS011;37112;45.892;-123.962;2023-06-22T08:23:41;9.70;;;3.50;;
51066;SDS011;37112;45.892;-123.962;2023-06-22T08:26:11;10.60;;;3.20;;
51066;SDS011;37112;45.892;-123.962;2023-06-22T08:28:42;10.00;;;3.50;;
51066;SDS011;37112;45.892;-123.962;2023-06-22T08:31:15;10.20;;;3.60;;
51066;SDS011;37112;45.892;-123.962;2023-06-22T08:33:48;10.60;;;3.20;;
51066;SDS011;37112;45.892;-123.962;2023-06-22T08:36:11;12.90;;;3.40;;
51066;SDS011;37112;45.892;-123.962;2023-06-22T08:38:41;8.00;;;2.80;;
51066;SDS011;37112;45.892;-123.962;2023-06-22T08:41:11;7.50;;;3.00;;
51066;SDS011;37112;45.892;-123.962;2023-06-22T08:43:46;8.70;;;3.00;;
51066;SDS011;37112;45.892;-123.962;2023-06-22T08:46:16;15.60;;;3.20;;
51066;SDS011;37112;45.892;-123.962;2023-06-22T08:48:37;11.50;;;3.40;;
51066;SDS011;37112;45.892;-123.962;2023-06-22T08:51:07;12.40;;;3.30;;
51066;SDS011;37112;45.892;-123.962;2023-06-22T08:54:01;10.00;;;3.90;;
51066;SDS011;37112;45.892;-123.962;2023-06-22T08:56:37;6.60;;;3.40;;
51066;SDS011;37112;45.892;-123.962;2023-06-22T08:59:09;7.80;;;3.00;;
51066;SDS011;37112;45.892;-123.962;2023-06-22T09:01:39;10.60;;;3.70;;
51066;SDS011;37112;45.892;-123.962;2023-06-22T09:04:14;5.30;;;2.70;;
51066;SDS011;37112;45.892;-123.962;2023-06-22T09:06:44;7.70;;;3.10;;
51066;SDS011;37112;45.892;-123.962;2023-06-22T09:09:15;8.50;;;3.00;;
51066;SDS011;37112;45.892;-123.962;2023-06-22T09:11:35;5.80;;;2.50;;
51066;SDS011;37112;45.892;-123.962;2023-06-22T09:14:06;11.40;;;3.30;;
51066;SDS011;37112;45.892;-123.962;2023-06-22T09:16:37;7.00;;;2.70;;
51066;SDS011;37112;45.892;-123.962;2023-06-22T09:19:03;10.80;;;3.10;;
51066;SDS011;37112;45.892;-123.962;2023-06-22T09:21:23;6.00;;;2.70;;
51066;SDS011;37112;45.892;-123.962;2023-06-22T09:23:54;10.10;;;2.60;;
51066;SDS011;37112;45.892;-123.962;2023-06-22T09:26:25;8.30;;;2.80;;
51066;SDS011;37112;45.892;-123.962;2023-06-22T09:28:56;6.60;;;2.90;;
51066;SDS011;37112;45.892;-123.962;2023-06-22T09:31:27;9.80;;;2.90;;
51066;SDS011;37112;45.892;-123.962;2023-06-22T09:33:57;6.70;;;2.80;;
51066;SDS011;37112;45.892;-123.962;2023-06-22T09:36:28;14.90;;;6.10;;
51066;SDS011;37112;45.892;-123.962;2023-06-22T09:38:58;21.00;;;7.00;;
51066;SDS011;37112;45.892;-123.962;2023-06-22T09:41:35;22.40;;;6.00;;
51066;SDS011;37112;45.892;-123.962;2023-06-22T09:44:06;21.70;;;5.40;;
51066;SDS011;37112;45.892;-123.962;2023-06-22T09:46:37;29.80;;;5.20;;
51066;SDS011;37112;45.892;-123.962;2023-06-22T09:49:08;20.00;;;4.70;;
51066;SDS011;37112;45.892;-123.962;2023-06-22T09:54:16;22.90;;;4.50;;
51066;SDS011;37112;45.892;-123.962;2023-06-22T09:56:47;21.00;;;4.40;;
51066;SDS011;37112;45.892;-123.962;2023-06-22T09:59:18;15.40;;;4.10;;
51066;SDS011;37112;45.892;-123.962;2023-06-22T10:01:49;16.10;;;3.30;;
51066;SDS011;37112;45.892;-123.962;2023-06-22T10:04:19;12.90;;;3.30;;
51066;SDS011;37112;45.892;-123.962;2023-06-22T10:06:52;6.00;;;2.20;;
51066;SDS011;37112;45.892;-123.962;2023-06-22T10:09:23;7.20;;;2.30;;
51066;SDS011;37112;45.892;-123.962;2023-06-22T10:11:54;7.60;;;2.40;;
51066;SDS011;37112;45.892;-123.962;2023-06-22T10:14:15;4.50;;;2.00;;
51066;SDS011;37112;45.892;-123.962;2023-06-22T10:16:48;5.30;;;2.10;;
51066;SDS011;37112;45.892;-123.962;2023-06-22T10:19:24;4.70;;;2.20;;
51066;SDS011;37112;45.892;-123.962;2023-06-22T10:21:43;6.70;;;3.00;;
51066;SDS011;37112;45.892;-123.962;2023-06-22T10:24:14;5.70;;;2.40;;
51066;SDS011;37112;45.892;-123.962;2023-06-22T10:26:44;4.00;;;2.30;;
51066;SDS011;37112;45.892;-123.962;2023-06-22T10:29:15;4.90;;;2.20;;
51066;SDS011;37112;45.892;-123.962;2023-06-22T10:31:46;5.30;;;2.20;;
51066;SDS011;37112;45.892;-123.962;2023-06-22T10:34:17;3.90;;;2.00;;
51066;SDS011;37112;45.892;-123.962;2023-06-22T10:36:47;6.70;;;1.90;;
51066;SDS011;37112;45.892;-123.962;2023-06-22T10:39:08;4.70;;;2.30;;
51066;SDS011;37112;45.892;-123.962;2023-06-22T10:41:39;6.90;;;2.50;;
51066;SDS011;37112;45.892;-123.962;2023-06-22T10:44:00;6.50;;;2.90;;
51066;SDS011;37112;45.892;-123.962;2023-06-22T10:46:31;4.30;;;1.70;;
51066;SDS011;37112;45.892;-123.962;2023-06-22T10:49:01;5.70;;;2.80;;
51066;SDS011;37112;45.892;-123.962;2023-06-22T10:51:32;10.80;;;3.00;;
51066;SDS011;37112;45.892;-123.962;2023-06-22T10:53:52;9.50;;;2.90;;
51066;SDS011;37112;45.892;-123.962;2023-06-22T10:56:23;11.80;;;3.40;;
51066;SDS011;37112;45.892;-123.962;2023-06-22T10:58:53;7.90;;;2.60;;
51066;SDS011;37112;45.892;-123.962;2023-06-22T11:01:24;6.50;;;2.20;;
51066;SDS011;37112;45.892;-123.962;2023-06-22T11:04:01;2.90;;;2.00;;
51066;SDS011;37112;45.892;-123.962;2023-06-22T11:06:21;4.30;;;2.10;;
51066;SDS011;37112;45.892;-123.962;2023-06-22T11:08:40;7.30;;;2.50;;
51066;SDS011;37112;45.892;-123.962;2023-06-22T11:11:29;5.90;;;2.80;;
51066;SDS011;37112;45.892;-123.962;2023-06-22T11:14:00;5.30;;;2.40;;
51066;SDS011;37112;45.892;-123.962;2023-06-22T11:16:30;5.70;;;2.90;;
51066;SDS011;37112;45.892;-123.962;2023-06-22T11:19:01;6.20;;;2.40;;
51066;SDS011;37112;45.892;-123.962;2023-06-22T11:21:21;7.60;;;2.40;;
51066;SDS011;37112;45.892;-123.962;2023-06-22T11:23:41;5.00;;;2.00;;
51066;SDS011;37112;45.892;-123.962;2023-06-22T11:26:11;7.00;;;3.00;;
51066;SDS011;37112;45.892;-123.962;2023-06-22T11:28:42;4.50;;;2.50;;
51066;SDS011;37112;45.892;-123.962;2023-06-22T11:31:12;6.00;;;2.40;;
51066;SDS011;37112;45.892;-123.962;2023-06-22T11:33:50;6.30;;;2.60;;
51066;SDS011;37112;45.892;-123.962;2023-06-22T11:36:21;3.90;;;2.50;;
51066;SDS011;37112;45.892;-123.962;2023-06-22T11:38:53;5.80;;;2.70;;
51066;SDS011;37112;45.892;-123.962;2023-06-22T11:41:23;4.20;;;2.40;;
51066;SDS011;37112;45.892;-123.962;2023-06-22T11:43:54;4.40;;;2.50;;
51066;SDS011;37112;45.892;-123.962;2023-06-22T11:46:24;4.70;;;2.60;;
51066;SDS011;37112;45.892;-123.962;2023-06-22T11:48:55;7.80;;;2.40;;
51066;SDS011;37112;45.892;-123.962;2023-06-22T11:51:25;8.50;;;3.10;;
51066;SDS011;37112;45.892;-123.962;2023-06-22T11:53:57;8.80;;;2.90;;
51066;SDS011;37112;45.892;-123.962;2023-06-22T11:56:28;11.40;;;3.70;;
51066;SDS011;37112;45.892;-123.962;2023-06-22T11:58:59;6.70;;;2.90;;
51066;SDS011;37112;45.892;-123.962;2023-06-22T12:01:30;7.10;;;3.20;;
51066;SDS011;37112;45.892;-123.962;2023-06-22T12:04:00;4.00;;;2.20;;
51066;SDS011;37112;45.892;-123.962;2023-06-22T12:06:23;5.90;;;2.80;;
51066;SDS011;37112;45.892;-123.962;2023-06-22T12:08:53;8.50;;;3.90;;
51066;SDS011;37112;45.892;-123.962;2023-06-22T12:11:13;10.70;;;3.60;;
51066;SDS011;37112;45.892;-123.962;2023-06-22T12:13:44;7.80;;;3.10;;
51066;SDS011;37112;45.892;-123.962;2023-06-22T12:16:14;9.90;;;3.10;;
51066;SDS011;37112;45.892;-123.962;2023-06-22T12:18:46;6.30;;;2.90;;
51066;SDS011;37112;45.892;-123.962;2023-06-22T12:21:17;4.60;;;2.60;;
51066;SDS011;37112;45.892;-123.962;2023-06-22T12:23:48;4.60;;;2.60;;
51066;SDS011;37112;45.892;-123.962;2023-06-22T12:26:19;5.70;;;2.40;;
51066;SDS011;37112;45.892;-123.962;2023-06-22T12:28:49;5.10;;;2.20;;
51066;SDS011;37112;45.892;-123.962;2023-06-22T12:31:12;4.40;;;2.70;;
51066;SDS011;37112;45.892;-123.962;2023-06-22T12:33:36;7.10;;;2.70;;
51066;SDS011;37112;45.892;-123.962;2023-06-22T12:36:07;3.60;;;2.60;;
51066;SDS011;37112;45.892;-123.962;2023-06-22T12:38:37;7.40;;;3.70;;
51066;SDS011;37112;45.892;-123.962;2023-06-22T12:41:09;4.90;;;2.50;;
51066;SDS011;37112;45.892;-123.962;2023-06-22T12:43:40;3.60;;;2.40;;
51066;SDS011;37112;45.892;-123.962;2023-06-22T12:46:11;7.20;;;2.40;;
51066;SDS011;37112;45.892;-123.962;2023-06-22T12:48:30;5.90;;;2.90;;
51066;SDS011;37112;45.892;-123.962;2023-06-22T12:51:32;3.40;;;2.50;;
51066;SDS011;37112;45.892;-123.962;2023-06-22T12:54:07;3.60;;;2.40;;
51066;SDS011;37112;45.892;-123.962;2023-06-22T12:56:27;5.00;;;2.50;;
51066;SDS011;37112;45.892;-123.962;2023-06-22T12:58:58;5.50;;;2.80;;
51066;SDS011;37112;45.892;-123.962;2023-06-22T13:01:18;4.30;;;2.20;;
51066;SDS011;37112;45.892;-123.962;2023-06-22T13:03:49;3.10;;;2.10;;
51066;SDS011;37112;45.892;-123.962;2023-06-22T13:06:09;3.70;;;2.30;;
51066;SDS011;37112;45.892;-123.962;2023-06-22T13:08:40;4.80;;;2.20;;
51066;SDS011;37112;45.892;-123.962;2023-06-22T13:11:31;3.40;;;2.20;;
51066;SDS011;37112;45.892;-123.962;2023-06-22T13:14:01;4.30;;;2.20;;
51066;SDS011;37112;45.892;-123.962;2023-06-22T13:16:32;4.40;;;2.80;;
51066;SDS011;37112;45.892;-123.962;2023-06-22T13:19:03;5.90;;;2.40;;
51066;SDS011;37112;45.892;-123.962;2023-06-22T13:21:36;5.20;;;2.70;;
51066;SDS011;37112;45.892;-123.962;2023-06-22T13:24:07;5.50;;;2.50;;
51066;SDS011;37112;45.892;-123.962;2023-06-22T13:26:28;2.80;;;2.50;;
51066;SDS011;37112;45.892;-123.962;2023-06-22T13:28:49;4.70;;;2.60;;
51066;SDS011;37112;45.892;-123.962;2023-06-22T13:31:21;5.10;;;2.50;;
51066;SDS011;37112;45.892;-123.962;2023-06-22T13:33:52;6.30;;;2.30;;
51066;SDS011;37112;45.892;-123.962;2023-06-22T13:36:24;3.80;;;2.40;;
51066;SDS011;37112;45.892;-123.962;2023-06-22T13:38:56;2.60;;;2.10;;
51066;SDS011;37112;45.892;-123.962;2023-06-22T13:41:27;5.50;;;2.70;;
51066;SDS011;37112;45.892;-123.962;2023-06-22T13:43:58;8.10;;;2.90;;
51066;SDS011;37112;45.892;-123.962;2023-06-22T13:46:29;6.10;;;2.20;;
51066;SDS011;37112;45.892;-123.962;2023-06-22T13:48:59;5.50;;;2.10;;
51066;SDS011;37112;45.892;-123.962;2023-06-22T13:51:30;3.00;;;2.30;;
51066;SDS011;37112;45.892;-123.962;2023-06-22T13:54:01;6.10;;;2.40;;
51066;SDS011;37112;45.892;-123.962;2023-06-22T13:56:50;3.10;;;2.50;;
51066;SDS011;37112;45.892;-123.962;2023-06-22T13:59:21;5.60;;;3.10;;
51066;SDS011;37112;45.892;-123.962;2023-06-22T14:01:46;4.20;;;2.80;;
51066;SDS011;37112;45.892;-123.962;2023-06-22T14:04:17;4.50;;;2.40;;
51066;SDS011;37112;45.892;-123.962;2023-06-22T14:06:50;2.70;;;2.30;;
51066;SDS011;37112;45.892;-123.962;2023-06-22T14:09:12;5.10;;;2.30;;
51066;SDS011;37112;45.892;-123.962;2023-06-22T14:11:43;4.90;;;2.30;;
51066;SDS011;37112;45.892;-123.962;2023-06-22T14:14:14;4.60;;;2.80;;
51066;SDS011;37112;45.892;-123.962;2023-06-22T14:16:44;12.20;;;3.70;;
51066;SDS011;37112;45.892;-123.962;2023-06-22T14:19:18;14.20;;;3.30;;
51066;SDS011;37112;45.892;-123.962;2023-06-22T14:21:49;5.80;;;2.80;;
51066;SDS011;37112;45.892;-123.962;2023-06-22T14:24:19;4.50;;;2.00;;
51066;SDS011;37112;45.892;-123.962;2023-06-22T14:26:52;6.10;;;2.60;;
51066;SDS011;37112;45.892;-123.962;2023-06-22T14:29:13;9.40;;;3.40;;
51066;SDS011;37112;45.892;-123.962;2023-06-22T14:31:46;6.60;;;2.40;;